createdAt,value
2018-05-06T00:00:38.728Z,0.00
2018-05-06T00:01:38.916Z,8.00
2018-05-06T00:02:39.102Z,8.00
2018-05-06T00:03:39.284Z,8.00
2018-05-06T00:04:39.472Z,8.00
2018-05-06T00:05:39.657Z,8.00
2018-05-06T00:06:39.843Z,8.00
2018-05-06T00:07:40.028Z,8.00
2018-05-06T00:08:40.214Z,8.00
2018-05-06T00:09:40.400Z,8.00
2018-05-06T00:10:40.587Z,0.00
2018-05-06T00:11:40.773Z,0.00
2018-05-06T00:12:40.960Z,0.00
2018-05-06T00:13:41.147Z,0.00
2018-05-06T00:14:41.333Z,0.00
2018-05-06T00:15:41.519Z,0.00
2018-05-06T00:16:41.704Z,0.00
2018-05-06T00:17:41.890Z,0.00
2018-05-06T00:18:42.075Z,0.00
2018-05-06T00:19:42.262Z,0.00
2018-05-06T00:20:42.448Z,0.00
2018-05-06T00:21:42.636Z,0.00
2018-05-06T00:22:42.819Z,0.00
2018-05-06T00:23:43.005Z,0.00
2018-05-06T00:24:43.193Z,0.00
2018-05-06T00:25:43.377Z,0.00
2018-05-06T00:26:43.562Z,0.00
2018-05-06T00:27:43.747Z,0.00
2018-05-06T00:28:43.944Z,0.00
2018-05-06T00:29:44.126Z,0.00
2018-05-06T00:30:44.308Z,84.00
2018-05-06T00:31:44.499Z,8.00
2018-05-06T00:32:44.681Z,8.00
2018-05-06T00:33:44.866Z,8.00
2018-05-06T00:34:45.053Z,8.00
2018-05-06T00:35:45.238Z,8.00
2018-05-06T00:36:45.425Z,8.00
2018-05-06T00:37:45.610Z,80.00
2018-05-06T00:38:45.797Z,8.00
2018-05-06T00:39:45.981Z,8.00
2018-05-06T00:40:46.168Z,8.00
2018-05-06T00:41:46.352Z,8.00
2018-05-06T00:42:46.537Z,8.00
2018-05-06T00:43:46.722Z,8.00
2018-05-06T00:44:46.909Z,8.00
2018-05-06T00:45:47.096Z,8.00
2018-05-06T00:46:47.284Z,0.00
2018-05-06T00:47:47.467Z,0.00
2018-05-06T00:48:47.653Z,0.00
2018-05-06T00:49:47.840Z,0.00
2018-05-06T00:50:48.024Z,0.00
2018-05-06T00:51:48.211Z,0.00
2018-05-06T00:52:48.396Z,0.00
2018-05-06T00:53:48.579Z,0.00
2018-05-06T00:54:48.765Z,0.00
2018-05-06T00:55:48.953Z,0.00
2018-05-06T00:56:49.135Z,0.00
2018-05-06T00:57:49.321Z,0.00
2018-05-06T00:58:49.507Z,0.00
2018-05-06T00:59:49.694Z,0.00
2018-05-06T01:00:49.878Z,0.00
2018-05-06T01:01:50.064Z,0.00
2018-05-06T01:02:50.252Z,0.00
2018-05-06T01:03:50.435Z,0.00
2018-05-06T01:04:50.620Z,0.00
2018-05-06T01:05:50.807Z,0.00
2018-05-06T01:06:50.993Z,0.00
2018-05-06T01:07:54.617Z,0.00
2018-05-06T01:08:51.423Z,0.00
2018-05-06T01:09:51.610Z,0.00
2018-05-06T01:10:51.796Z,0.00
2018-05-06T01:11:51.983Z,0.00
2018-05-06T01:12:52.169Z,0.00
2018-05-06T01:13:52.352Z,0.00
2018-05-06T01:14:52.540Z,0.00
2018-05-06T01:15:52.725Z,0.00
2018-05-06T01:16:52.911Z,0.00
2018-05-06T01:17:53.096Z,0.00
2018-05-06T01:18:53.281Z,0.00
2018-05-06T01:19:53.468Z,0.00
2018-05-06T01:20:53.655Z,0.00
2018-05-06T01:21:53.840Z,0.00
2018-05-06T01:22:54.025Z,8.00
2018-05-06T01:23:54.208Z,8.00
2018-05-06T01:24:54.394Z,8.00
2018-05-06T01:25:54.581Z,8.00
2018-05-06T01:26:54.767Z,8.00
2018-05-06T01:27:54.954Z,8.00
2018-05-06T01:28:55.139Z,8.00
2018-05-06T01:29:55.325Z,8.00
2018-05-06T01:30:55.511Z,0.00
2018-05-06T01:31:55.695Z,0.00
2018-05-06T01:32:55.879Z,0.00
2018-05-06T01:33:56.067Z,0.00
2018-05-06T01:34:56.250Z,0.00
2018-05-06T01:35:56.435Z,0.00
2018-05-06T01:36:56.623Z,0.00
2018-05-06T01:37:56.812Z,0.00
2018-05-06T01:38:56.992Z,0.00
2018-05-06T01:39:57.180Z,0.00
2018-05-06T01:40:57.364Z,0.00
2018-05-06T01:41:57.548Z,0.00
2018-05-06T01:42:57.733Z,0.00
2018-05-06T01:43:57.920Z,0.00
2018-05-06T01:44:58.104Z,0.00
2018-05-06T01:45:58.288Z,0.00
2018-05-06T01:46:58.473Z,0.00
2018-05-06T01:47:58.660Z,0.00
2018-05-06T01:48:58.845Z,0.00
2018-05-06T01:49:59.032Z,0.00
2018-05-06T01:50:59.218Z,0.00
2018-05-06T01:51:59.401Z,0.00
2018-05-06T01:52:59.590Z,0.00
2018-05-06T01:53:59.775Z,0.00
2018-05-06T01:54:59.961Z,0.00
2018-05-06T01:56:00.147Z,0.00
2018-05-06T01:57:00.334Z,0.00
2018-05-06T01:58:00.520Z,0.00
2018-05-06T01:59:00.705Z,0.00
2018-05-06T02:00:00.891Z,0.00
2018-05-06T02:01:01.080Z,0.00
2018-05-06T02:02:01.264Z,0.00
2018-05-06T02:03:01.453Z,0.00
2018-05-06T02:04:01.635Z,0.00
2018-05-06T02:05:01.823Z,0.00
2018-05-06T02:06:02.008Z,0.00
2018-05-06T02:07:02.193Z,0.00
2018-05-06T02:08:02.378Z,0.00
2018-05-06T02:09:02.563Z,0.00
2018-05-06T02:10:02.749Z,0.00
2018-05-06T02:11:02.941Z,0.00
2018-05-06T02:12:03.121Z,8.00
2018-05-06T02:13:03.306Z,8.00
2018-05-06T02:14:03.493Z,8.00
2018-05-06T02:15:03.676Z,8.00
2018-05-06T02:16:03.863Z,8.00
2018-05-06T02:17:04.049Z,8.00
2018-05-06T02:18:04.234Z,8.00
2018-05-06T02:19:04.419Z,8.00
2018-05-06T02:20:04.608Z,0.00
2018-05-06T02:21:04.794Z,0.00
2018-05-06T02:22:04.998Z,0.00
2018-05-06T02:23:05.162Z,0.00
2018-05-06T02:24:05.354Z,0.00
2018-05-06T02:25:05.538Z,0.00
2018-05-06T02:26:05.722Z,0.00
2018-05-06T02:27:05.910Z,0.00
2018-05-06T02:28:06.094Z,0.00
2018-05-06T02:29:06.278Z,0.00
2018-05-06T02:30:06.465Z,0.00
2018-05-06T02:31:06.651Z,0.00
2018-05-06T02:32:06.836Z,0.00
2018-05-06T02:33:07.032Z,0.00
2018-05-06T02:34:07.206Z,0.00
2018-05-06T02:35:07.400Z,0.00
2018-05-06T02:36:07.580Z,0.00
2018-05-06T02:37:07.767Z,0.00
2018-05-06T02:38:07.952Z,0.00
2018-05-06T02:39:08.139Z,0.00
2018-05-06T02:40:08.324Z,0.00
2018-05-06T02:41:08.512Z,0.00
2018-05-06T02:42:08.693Z,0.00
2018-05-06T02:43:08.882Z,0.00
2018-05-06T02:44:09.065Z,0.00
2018-05-06T02:45:09.250Z,0.00
2018-05-06T02:46:09.437Z,0.00
2018-05-06T02:47:09.619Z,0.00
2018-05-06T02:48:09.807Z,0.00
2018-05-06T02:49:09.993Z,0.00
2018-05-06T02:50:10.179Z,0.00
2018-05-06T02:51:10.365Z,0.00
2018-05-06T02:52:10.548Z,0.00
2018-05-06T02:53:10.733Z,0.00
2018-05-06T02:54:10.921Z,0.00
2018-05-06T02:55:11.105Z,0.00
2018-05-06T02:56:11.291Z,0.00
2018-05-06T02:57:11.475Z,4.00
2018-05-06T02:58:11.661Z,0.00
2018-05-06T02:59:11.845Z,0.00
2018-05-06T03:00:12.032Z,0.00
2018-05-06T03:01:12.216Z,4.00
2018-05-06T03:02:12.400Z,0.00
2018-05-06T03:03:12.585Z,4.00
2018-05-06T03:04:12.771Z,4.00
2018-05-06T03:05:12.953Z,4.00
2018-05-06T03:06:13.139Z,8.00
2018-05-06T03:07:13.325Z,4.00
2018-05-06T03:08:13.509Z,4.00
2018-05-06T03:09:13.693Z,8.00
2018-05-06T03:10:13.880Z,8.00
2018-05-06T03:11:14.063Z,8.00
2018-05-06T03:12:14.249Z,8.00
2018-05-06T03:13:14.435Z,12.00
2018-05-06T03:14:14.623Z,16.00
2018-05-06T03:15:14.805Z,12.00
2018-05-06T03:16:14.986Z,20.00
2018-05-06T03:17:15.172Z,20.00
2018-05-06T03:18:15.356Z,24.00
2018-05-06T03:19:15.540Z,28.00
2018-05-06T03:20:15.727Z,32.00
2018-05-06T03:21:15.911Z,40.00
2018-05-06T03:22:16.100Z,40.00
2018-05-06T03:23:16.281Z,48.00
2018-05-06T03:24:16.467Z,56.00
2018-05-06T03:25:16.654Z,64.00
2018-05-06T03:26:16.838Z,72.00
2018-05-06T03:27:17.027Z,84.00
2018-05-06T03:28:17.210Z,96.00
2018-05-06T03:29:17.399Z,108.00
2018-05-06T03:30:17.581Z,124.00
2018-05-06T03:31:17.764Z,140.00
2018-05-06T03:32:17.949Z,156.00
2018-05-06T03:33:18.135Z,180.00
2018-05-06T03:34:18.319Z,200.00
2018-05-06T03:35:18.504Z,224.00
2018-05-06T03:36:18.689Z,248.00
2018-05-06T03:37:18.878Z,276.00
2018-05-06T03:38:19.061Z,304.00
2018-05-06T03:39:19.245Z,336.00
2018-05-06T03:40:19.430Z,372.00
2018-05-06T03:41:19.614Z,408.00
2018-05-06T03:42:19.801Z,444.00
2018-05-06T03:43:19.985Z,488.00
2018-05-06T03:44:20.171Z,532.00
2018-05-06T03:45:20.357Z,584.00
2018-05-06T03:46:20.539Z,632.00
2018-05-06T03:47:20.724Z,688.00
2018-05-06T03:48:20.912Z,748.00
2018-05-06T03:49:21.094Z,808.00
2018-05-06T03:50:21.278Z,872.00
2018-05-06T03:51:21.466Z,936.00
2018-05-06T03:52:21.649Z,1008.00
2018-05-06T03:53:21.834Z,1084.00
2018-05-06T03:54:22.019Z,1164.00
2018-05-06T03:55:22.205Z,1248.00
2018-05-06T03:56:22.388Z,1332.00
2018-05-06T03:57:22.573Z,1524.00
2018-05-06T03:58:22.756Z,1964.00
2018-05-06T03:59:22.941Z,2552.00
2018-05-06T04:00:23.224Z,2940.00
2018-05-06T04:01:23.309Z,3360.00
2018-05-06T04:02:23.495Z,3912.00
2018-05-06T04:03:23.679Z,4208.00
2018-05-06T04:04:23.864Z,4728.00
2018-05-06T04:05:24.051Z,5408.00
2018-05-06T04:06:24.236Z,6012.00
2018-05-06T04:07:24.424Z,6628.00
2018-05-06T04:08:24.607Z,7368.00
2018-05-06T04:09:24.791Z,8264.00
2018-05-06T04:10:24.975Z,8960.00
2018-05-06T04:11:25.161Z,9984.00
2018-05-06T04:12:25.348Z,10496.00
2018-05-06T04:13:25.534Z,11072.00
2018-05-06T04:14:25.719Z,12416.00
2018-05-06T04:15:25.908Z,13344.00
2018-05-06T04:16:26.074Z,14176.00
2018-05-06T04:17:26.251Z,15552.00
2018-05-06T04:18:26.437Z,16416.00
2018-05-06T04:19:26.627Z,17824.00
2018-05-06T04:20:26.811Z,18976.00
2018-05-06T04:21:26.997Z,19808.00
2018-05-06T04:22:27.185Z,20544.00
2018-05-06T04:23:27.370Z,20768.00
2018-05-06T04:24:27.558Z,21760.00
2018-05-06T04:25:27.745Z,23616.00
2018-05-06T04:26:27.933Z,25120.00
2018-05-06T04:27:28.120Z,26144.00
2018-05-06T04:28:28.307Z,27392.00
2018-05-06T04:29:28.496Z,28608.00
2018-05-06T04:30:28.683Z,28896.00
2018-05-06T04:31:28.872Z,29152.00
2018-05-06T04:32:29.061Z,30272.00
2018-05-06T04:33:29.249Z,30880.00
2018-05-06T04:34:29.440Z,31264.00
2018-05-06T04:35:29.627Z,32480.00
2018-05-06T04:36:29.816Z,33792.00
2018-05-06T04:37:30.005Z,34112.00
2018-05-06T04:38:30.193Z,34496.00
2018-05-06T04:39:30.384Z,36096.00
2018-05-06T04:40:30.573Z,36960.00
2018-05-06T04:41:30.762Z,38304.00
2018-05-06T04:42:30.953Z,40032.00
2018-05-06T04:43:31.147Z,40896.00
2018-05-06T04:44:31.333Z,41344.00
2018-05-06T04:45:31.522Z,41856.00
2018-05-06T04:46:31.714Z,43808.00
2018-05-06T04:47:31.905Z,45280.00
2018-05-06T04:48:32.097Z,47072.00
2018-05-06T04:49:32.288Z,48576.00
2018-05-06T04:50:32.479Z,50144.00
2018-05-06T04:51:32.670Z,50336.00
2018-05-06T04:52:32.863Z,50912.00
2018-05-06T04:53:33.052Z,51744.00
2018-05-06T04:54:33.246Z,52160.00
2018-05-06T04:55:33.440Z,52096.00
2018-05-06T04:56:33.627Z,52992.00
2018-05-06T04:57:33.819Z,54368.00
2018-05-06T04:58:34.011Z,55232.00
2018-05-06T04:59:34.201Z,56064.00
2018-05-06T05:00:34.393Z,57984.00
2018-05-06T05:01:34.585Z,58144.00
2018-05-06T05:02:34.776Z,58912.00
2018-05-06T05:03:34.967Z,59456.00
2018-05-06T05:04:35.161Z,60384.00
2018-05-06T05:05:35.366Z,61760.00
2018-05-06T05:06:35.545Z,62592.00
2018-05-06T05:07:35.737Z,60096.00
2018-05-06T05:08:35.929Z,57504.00
2018-05-06T05:09:36.179Z,56896.00
2018-05-06T05:10:36.314Z,57728.00
2018-05-06T05:11:36.508Z,60224.00
2018-05-06T05:12:36.699Z,61920.00
2018-05-06T05:13:36.894Z,65888.00
2018-05-06T05:14:37.090Z,66240.00
2018-05-06T05:15:37.284Z,64640.00
2018-05-06T05:16:37.477Z,66048.00
2018-05-06T05:17:37.664Z,68128.00
2018-05-06T05:18:37.857Z,66336.00
2018-05-06T05:19:38.051Z,64640.00
2018-05-06T05:20:38.244Z,66240.00
2018-05-06T05:21:38.438Z,65792.00
2018-05-06T05:22:38.634Z,66784.00
2018-05-06T05:23:38.830Z,68960.00
2018-05-06T05:24:39.024Z,68160.00
2018-05-06T05:25:39.218Z,68256.00
2018-05-06T05:26:39.414Z,69408.00
2018-05-06T05:27:39.611Z,67936.00
2018-05-06T05:28:39.806Z,65632.00
2018-05-06T05:29:40.000Z,65632.00
2018-05-06T05:30:40.195Z,66880.00
2018-05-06T05:31:40.393Z,69152.00
2018-05-06T05:32:40.591Z,70816.00
2018-05-06T05:33:40.786Z,70624.00
2018-05-06T05:34:40.984Z,72192.00
2018-05-06T05:35:41.177Z,70816.00
2018-05-06T05:36:41.374Z,70048.00
2018-05-06T05:37:41.571Z,69824.00
2018-05-06T05:38:41.765Z,70560.00
2018-05-06T05:39:41.967Z,72000.00
2018-05-06T05:40:42.159Z,72544.00
2018-05-06T05:41:42.356Z,70752.00
2018-05-06T05:42:42.555Z,70272.00
2018-05-06T05:43:42.751Z,69440.00
2018-05-06T05:44:42.947Z,68576.00
2018-05-06T05:45:43.147Z,68160.00
2018-05-06T05:46:43.345Z,68480.00
2018-05-06T05:47:43.555Z,70048.00
2018-05-06T05:48:43.742Z,71648.00
2018-05-06T05:49:43.941Z,72160.00
2018-05-06T05:50:44.136Z,73056.00
2018-05-06T05:51:44.339Z,73088.00
2018-05-06T05:52:44.534Z,73184.00
2018-05-06T05:53:44.739Z,74560.00
2018-05-06T05:54:44.930Z,73088.00
2018-05-06T05:55:45.131Z,72992.00
2018-05-06T05:56:45.329Z,75840.00
2018-05-06T05:57:45.526Z,76992.00
2018-05-06T05:58:45.726Z,79200.00
2018-05-06T05:59:45.926Z,80032.00
2018-05-06T06:00:46.127Z,78304.00
2018-05-06T06:01:46.324Z,78944.00
2018-05-06T06:02:46.523Z,81184.00
2018-05-06T06:03:46.723Z,84640.00
2018-05-06T06:04:46.922Z,86400.00
2018-05-06T06:05:47.123Z,87616.00
2018-05-06T06:06:47.324Z,86176.00
2018-05-06T06:07:47.524Z,87424.00
2018-05-06T06:08:47.731Z,86976.00
2018-05-06T06:09:47.977Z,87040.00
2018-05-06T06:10:48.124Z,89376.00
2018-05-06T06:11:48.324Z,90304.00
2018-05-06T06:12:48.526Z,91296.00
2018-05-06T06:13:48.727Z,92288.00
2018-05-06T06:14:48.928Z,94240.00
2018-05-06T06:15:49.131Z,93152.00
2018-05-06T06:16:49.329Z,94528.00
2018-05-06T06:17:49.534Z,93728.00
2018-05-06T06:18:49.731Z,93024.00
2018-05-06T06:19:49.933Z,94048.00
2018-05-06T06:20:50.135Z,96832.00
2018-05-06T06:21:50.334Z,98336.00
2018-05-06T06:22:50.536Z,100448.00
2018-05-06T06:23:50.737Z,102656.00
2018-05-06T06:24:50.939Z,104032.00
2018-05-06T06:25:51.148Z,102848.00
2018-05-06T06:26:51.345Z,102752.00
2018-05-06T06:27:51.550Z,102752.00
2018-05-06T06:28:51.749Z,102784.00
2018-05-06T06:29:51.952Z,103520.00
2018-05-06T06:30:52.150Z,104928.00
2018-05-06T06:31:52.351Z,106624.00
2018-05-06T06:32:52.614Z,107968.00
2018-05-06T06:33:52.757Z,107808.00
2018-05-06T06:34:52.958Z,107776.00
2018-05-06T06:35:53.158Z,107936.00
2018-05-06T06:36:53.360Z,108128.00
2018-05-06T06:37:53.563Z,108320.00
2018-05-06T06:38:53.766Z,107808.00
2018-05-06T06:39:53.967Z,108224.00
2018-05-06T06:40:54.168Z,108000.00
2018-05-06T06:41:54.377Z,106464.00
2018-05-06T06:42:54.571Z,108192.00
2018-05-06T06:43:54.772Z,108864.00
2018-05-06T06:44:54.975Z,108224.00
2018-05-06T06:45:55.174Z,108736.00
2018-05-06T06:46:55.375Z,109920.00
2018-05-06T06:47:55.579Z,109696.00
2018-05-06T06:48:55.780Z,110496.00
2018-05-06T06:49:55.983Z,109408.00
2018-05-06T06:50:56.187Z,109344.00
2018-05-06T06:51:56.384Z,112096.00
2018-05-06T06:52:56.586Z,112192.00
2018-05-06T06:53:56.784Z,114528.00
2018-05-06T06:54:56.993Z,114560.00
2018-05-06T06:55:57.193Z,113440.00
2018-05-06T06:56:57.395Z,112672.00
2018-05-06T06:57:57.595Z,111584.00
2018-05-06T06:58:57.804Z,110432.00
2018-05-06T06:59:57.996Z,111488.00
2018-05-06T07:00:58.197Z,106592.00
2018-05-06T07:01:58.399Z,106592.00
2018-05-06T07:02:58.602Z,106976.00
2018-05-06T07:03:58.802Z,99488.00
2018-05-06T07:04:59.003Z,96800.00
2018-05-06T07:05:59.376Z,98464.00
2018-05-06T07:06:59.405Z,100096.00
2018-05-06T07:07:59.610Z,103552.00
2018-05-06T07:08:59.808Z,106048.00
2018-05-06T07:10:00.010Z,107552.00
2018-05-06T07:11:00.211Z,111552.00
2018-05-06T07:12:00.418Z,109760.00
2018-05-06T07:13:00.613Z,109312.00
2018-05-06T07:14:00.815Z,109152.00
2018-05-06T07:15:01.015Z,109760.00
2018-05-06T07:16:01.217Z,108800.00
2018-05-06T07:17:01.421Z,109536.00
2018-05-06T07:18:01.620Z,108672.00
2018-05-06T07:19:01.822Z,107968.00
2018-05-06T07:20:02.024Z,106720.00
2018-05-06T07:21:02.225Z,107904.00
2018-05-06T07:22:02.428Z,106752.00
2018-05-06T07:23:02.631Z,107936.00
2018-05-06T07:24:02.832Z,105344.00
2018-05-06T07:25:03.192Z,102944.00
2018-05-06T07:26:03.267Z,104800.00
2018-05-06T07:27:03.470Z,106400.00
2018-05-06T07:28:03.673Z,108320.00
2018-05-06T07:29:03.873Z,110848.00
2018-05-06T07:30:04.076Z,111776.00
2018-05-06T07:31:04.278Z,109856.00
2018-05-06T07:32:04.481Z,111968.00
2018-05-06T07:33:04.685Z,112480.00
2018-05-06T07:34:04.886Z,110560.00
2018-05-06T07:35:05.088Z,109600.00
2018-05-06T07:36:05.291Z,106368.00
2018-05-06T07:37:05.492Z,104992.00
2018-05-06T07:38:05.698Z,102464.00
2018-05-06T07:39:05.900Z,98112.00
2018-05-06T07:40:06.098Z,99264.00
2018-05-06T07:41:06.299Z,102944.00
2018-05-06T07:42:06.500Z,102272.00
2018-05-06T07:43:06.702Z,104768.00
2018-05-06T07:44:06.904Z,108608.00
2018-05-06T07:45:07.108Z,108544.00
2018-05-06T07:46:07.311Z,111552.00
2018-05-06T07:47:07.514Z,113056.00
2018-05-06T07:48:07.717Z,109792.00
2018-05-06T07:49:07.990Z,109504.00
2018-05-06T07:50:08.119Z,112864.00
2018-05-06T07:51:08.323Z,114752.00
2018-05-06T07:52:08.524Z,114144.00
2018-05-06T07:53:08.726Z,112544.00
2018-05-06T07:54:08.926Z,113120.00
2018-05-06T07:55:09.128Z,110656.00
2018-05-06T07:56:09.328Z,109056.00
2018-05-06T07:57:09.533Z,108416.00
2018-05-06T07:58:09.732Z,112128.00
2018-05-06T07:59:09.933Z,111488.00
2018-05-06T08:00:10.133Z,111872.00
2018-05-06T08:01:10.337Z,112448.00
2018-05-06T08:02:10.539Z,111904.00
2018-05-06T08:03:10.741Z,110368.00
2018-05-06T08:04:10.943Z,112544.00
2018-05-06T08:05:11.142Z,112704.00
2018-05-06T08:06:11.344Z,112352.00
2018-05-06T08:07:11.547Z,112608.00
2018-05-06T08:08:11.750Z,112512.00
2018-05-06T08:09:11.952Z,113120.00
2018-05-06T08:10:12.153Z,114720.00
2018-05-06T08:11:12.355Z,113696.00
2018-05-06T08:12:12.561Z,115360.00
2018-05-06T08:13:12.759Z,115488.00
2018-05-06T08:14:12.964Z,115904.00
2018-05-06T08:15:13.164Z,117952.00
2018-05-06T08:16:13.448Z,118784.00
2018-05-06T08:17:13.569Z,114912.00
2018-05-06T08:18:13.773Z,116576.00
2018-05-06T08:19:13.976Z,114720.00
2018-05-06T08:20:14.177Z,116352.00
2018-05-06T08:21:14.381Z,117152.00
2018-05-06T08:22:14.608Z,118816.00
2018-05-06T08:23:14.785Z,117792.00
2018-05-06T08:24:14.987Z,119456.00
2018-05-06T08:25:15.192Z,118784.00
2018-05-06T08:26:15.392Z,116576.00
2018-05-06T08:27:15.594Z,118272.00
2018-05-06T08:28:15.797Z,120288.00
2018-05-06T08:29:15.998Z,120256.00
2018-05-06T08:30:16.200Z,119360.00
2018-05-06T08:31:16.493Z,120992.00
2018-05-06T08:32:16.605Z,119680.00
2018-05-06T08:33:16.805Z,121280.00
2018-05-06T08:34:17.011Z,124736.00
2018-05-06T08:35:17.211Z,124768.00
2018-05-06T08:36:17.411Z,128320.00
2018-05-06T08:37:17.613Z,130112.00
2018-05-06T08:38:17.813Z,129312.00
2018-05-06T08:39:18.016Z,129568.00
2018-05-06T08:40:18.216Z,129536.00
2018-05-06T08:41:18.421Z,128992.00
2018-05-06T08:42:18.615Z,128064.00
2018-05-06T08:43:18.819Z,128928.00
2018-05-06T08:44:19.018Z,129056.00
2018-05-06T08:45:19.222Z,128672.00
2018-05-06T08:46:19.421Z,126528.00
2018-05-06T08:47:19.621Z,128448.00
2018-05-06T08:48:19.820Z,132576.00
2018-05-06T08:49:20.022Z,136800.00
2018-05-06T08:50:20.223Z,140256.00
2018-05-06T08:51:20.430Z,142656.00
2018-05-06T08:52:20.625Z,140992.00
2018-05-06T08:53:20.883Z,138912.00
2018-05-06T08:54:21.027Z,135200.00
2018-05-06T08:55:21.225Z,129056.00
2018-05-06T08:56:21.425Z,125216.00
2018-05-06T08:57:21.626Z,116192.00
2018-05-06T08:58:21.829Z,116640.00
2018-05-06T08:59:22.028Z,123232.00
2018-05-06T09:00:22.229Z,128096.00
2018-05-06T09:01:22.427Z,131136.00
2018-05-06T09:02:22.629Z,130528.00
2018-05-06T09:03:22.827Z,130848.00
2018-05-06T09:04:23.028Z,129504.00
2018-05-06T09:05:23.232Z,128096.00
2018-05-06T09:06:23.433Z,128064.00
2018-05-06T09:07:23.698Z,126400.00
2018-05-06T09:08:23.833Z,128640.00
2018-05-06T09:09:24.034Z,128704.00
2018-05-06T09:10:24.232Z,128928.00
2018-05-06T09:11:24.433Z,129024.00
2018-05-06T09:12:24.631Z,124256.00
2018-05-06T09:13:24.837Z,120160.00
2018-05-06T09:14:25.034Z,112480.00
2018-05-06T09:15:25.230Z,109568.00
2018-05-06T09:16:25.428Z,112192.00
2018-05-06T09:17:25.631Z,111008.00
2018-05-06T09:18:25.828Z,111072.00
2018-05-06T09:19:26.071Z,111584.00
2018-05-06T09:20:26.213Z,112064.00
2018-05-06T09:21:26.407Z,115968.00
2018-05-06T09:22:26.605Z,115968.00
2018-05-06T09:23:26.803Z,113696.00
2018-05-06T09:24:27.001Z,107040.00
2018-05-06T09:25:27.248Z,106368.00
2018-05-06T09:26:27.396Z,110752.00
2018-05-06T09:27:27.593Z,109504.00
2018-05-06T09:28:27.792Z,97984.00
2018-05-06T09:29:27.989Z,73568.00
2018-05-06T09:30:28.189Z,50336.00
2018-05-06T09:31:28.386Z,37952.00
2018-05-06T09:32:28.584Z,35424.00
2018-05-06T09:33:28.783Z,34592.00
2018-05-06T09:34:28.978Z,33728.00
2018-05-06T09:35:29.182Z,32864.00
2018-05-06T09:36:29.377Z,32352.00
2018-05-06T09:37:29.571Z,32352.00
2018-05-06T09:38:29.769Z,32480.00
2018-05-06T09:39:29.969Z,33056.00
2018-05-06T09:40:30.162Z,33920.00
2018-05-06T09:41:30.360Z,34048.00
2018-05-06T09:42:30.557Z,33504.00
2018-05-06T09:43:30.753Z,33472.00
2018-05-06T09:44:30.947Z,34272.00
2018-05-06T09:45:31.144Z,34848.00
2018-05-06T09:46:31.413Z,35232.00
2018-05-06T09:47:31.578Z,37664.00
2018-05-06T09:48:31.733Z,40640.00
2018-05-06T09:49:31.930Z,44480.00
2018-05-06T09:50:32.130Z,55008.00
2018-05-06T09:51:32.325Z,80896.00
2018-05-06T09:52:32.520Z,106848.00
2018-05-06T09:53:32.714Z,74048.00
2018-05-06T09:54:32.909Z,24992.00
2018-05-06T09:55:33.108Z,19968.00
2018-05-06T09:56:33.304Z,18624.00
2018-05-06T09:57:33.504Z,17156.00
2018-05-06T09:58:33.699Z,15812.00
2018-05-06T09:59:33.890Z,14412.00
2018-05-06T10:00:34.085Z,13316.00
2018-05-06T10:01:34.281Z,12728.00
2018-05-06T10:02:34.474Z,12264.00
2018-05-06T10:03:34.672Z,11908.00
2018-05-06T10:04:34.867Z,11748.00
2018-05-06T10:05:35.067Z,11584.00
2018-05-06T10:06:35.259Z,11452.00
2018-05-06T10:07:35.452Z,11252.00
2018-05-06T10:08:35.647Z,10884.00
2018-05-06T10:09:35.842Z,10628.00
2018-05-06T10:10:36.036Z,10516.00
2018-05-06T10:11:36.230Z,10428.00
2018-05-06T10:12:36.423Z,10412.00
2018-05-06T10:13:36.616Z,10512.00
2018-05-06T10:14:36.815Z,11072.00
2018-05-06T10:15:37.007Z,11536.00
2018-05-06T10:16:37.202Z,11544.00
2018-05-06T10:17:37.391Z,11612.00
2018-05-06T10:18:37.585Z,11628.00
2018-05-06T10:19:37.777Z,11680.00
2018-05-06T10:20:37.971Z,11368.00
2018-05-06T10:21:38.168Z,10300.00
2018-05-06T10:22:38.359Z,9520.00
2018-05-06T10:23:38.555Z,9348.00
2018-05-06T10:24:38.744Z,9288.00
2018-05-06T10:25:38.936Z,9248.00
2018-05-06T10:26:39.129Z,9188.00
2018-05-06T10:27:39.321Z,9148.00
2018-05-06T10:28:39.515Z,9100.00
2018-05-06T10:29:39.709Z,9064.00
2018-05-06T10:30:39.903Z,9064.00
2018-05-06T10:31:40.098Z,9076.00
2018-05-06T10:32:40.291Z,9064.00
2018-05-06T10:33:40.485Z,9040.00
2018-05-06T10:34:40.680Z,9020.00
2018-05-06T10:35:40.873Z,9044.00
2018-05-06T10:36:41.068Z,9116.00
2018-05-06T10:37:41.261Z,9244.00
2018-05-06T10:38:41.455Z,9424.00
2018-05-06T10:39:41.650Z,9608.00
2018-05-06T10:40:41.843Z,10000.00
2018-05-06T10:41:42.038Z,12128.00
2018-05-06T10:42:42.228Z,43584.00
2018-05-06T10:43:42.421Z,121216.00
2018-05-06T10:44:42.613Z,140224.00
2018-05-06T10:45:42.807Z,127136.00
2018-05-06T10:46:42.999Z,114368.00
2018-05-06T10:47:43.195Z,100256.00
2018-05-06T10:48:43.388Z,90048.00
2018-05-06T10:49:43.582Z,84864.00
2018-05-06T10:50:43.774Z,81056.00
2018-05-06T10:51:43.967Z,77696.00
2018-05-06T10:52:44.162Z,82432.00
2018-05-06T10:53:44.355Z,91264.00
2018-05-06T10:54:44.550Z,79264.00
2018-05-06T10:55:44.744Z,55232.00
2018-05-06T10:56:44.941Z,39744.00
2018-05-06T10:57:45.133Z,31104.00
2018-05-06T10:58:45.326Z,26944.00
2018-05-06T10:59:45.522Z,24480.00
2018-05-06T11:00:45.719Z,22752.00
2018-05-06T11:01:45.912Z,20672.00
2018-05-06T11:02:46.105Z,18624.00
2018-05-06T11:03:46.299Z,16920.00
2018-05-06T11:04:46.493Z,13116.00
2018-05-06T11:05:46.686Z,9212.00
2018-05-06T11:06:46.881Z,7996.00
2018-05-06T11:07:47.072Z,7792.00
2018-05-06T11:08:47.266Z,7748.00
2018-05-06T11:09:47.459Z,7712.00
2018-05-06T11:10:47.654Z,7688.00
2018-05-06T11:11:47.848Z,7668.00
2018-05-06T11:12:48.041Z,7656.00
2018-05-06T11:13:48.236Z,7644.00
2018-05-06T11:14:48.430Z,7628.00
2018-05-06T11:15:48.622Z,7596.00
2018-05-06T11:16:48.816Z,7580.00
2018-05-06T11:17:49.103Z,7564.00
2018-05-06T11:18:49.203Z,7548.00
2018-05-06T11:19:49.400Z,7508.00
2018-05-06T11:20:49.589Z,7496.00
2018-05-06T11:21:49.782Z,7480.00
2018-05-06T11:22:49.976Z,7472.00
2018-05-06T11:23:50.168Z,7452.00
2018-05-06T11:24:50.365Z,7424.00
2018-05-06T11:25:50.554Z,7424.00
2018-05-06T11:26:50.749Z,7428.00
2018-05-06T11:27:50.942Z,7420.00
2018-05-06T11:28:51.136Z,7416.00
2018-05-06T11:29:51.328Z,7420.00
2018-05-06T11:30:51.521Z,7420.00
2018-05-06T11:31:51.714Z,7400.00
2018-05-06T11:32:51.906Z,7356.00
2018-05-06T11:33:52.107Z,7316.00
2018-05-06T11:34:52.292Z,7316.00
2018-05-06T11:35:52.484Z,7304.00
2018-05-06T11:36:52.678Z,7284.00
2018-05-06T11:37:52.868Z,7272.00
2018-05-06T11:38:53.064Z,7272.00
2018-05-06T11:39:53.257Z,7280.00
2018-05-06T11:40:53.525Z,7280.00
2018-05-06T11:41:53.640Z,7272.00
2018-05-06T11:42:53.833Z,7256.00
2018-05-06T11:43:54.026Z,7240.00
2018-05-06T11:44:54.219Z,7236.00
2018-05-06T11:45:54.415Z,7240.00
2018-05-06T11:46:54.603Z,7240.00
2018-05-06T11:47:54.801Z,7256.00
2018-05-06T11:48:54.989Z,7224.00
2018-05-06T11:49:55.182Z,7192.00
2018-05-06T11:50:55.375Z,7168.00
2018-05-06T11:51:55.568Z,7168.00
2018-05-06T11:52:55.757Z,7152.00
2018-05-06T11:53:55.949Z,7124.00
2018-05-06T11:54:56.143Z,7100.00
2018-05-06T11:55:56.335Z,7076.00
2018-05-06T11:56:56.529Z,7072.00
2018-05-06T11:57:56.719Z,7068.00
2018-05-06T11:58:56.912Z,7068.00
2018-05-06T11:59:57.102Z,7048.00
2018-05-06T12:00:57.294Z,7016.00
2018-05-06T12:01:57.488Z,6988.00
2018-05-06T12:02:57.680Z,6980.00
2018-05-06T12:03:57.871Z,6960.00
2018-05-06T12:04:58.062Z,6936.00
2018-05-06T12:05:58.255Z,6904.00
2018-05-06T12:06:58.448Z,6880.00
2018-05-06T12:07:58.644Z,6860.00
2018-05-06T12:08:58.832Z,6856.00
2018-05-06T12:09:59.097Z,6848.00